Flight Track Log - Related Links

Times and Time Zones

All times are in EDT time to prevent confusion due to time zone crossing. See the CHH7967 flight status page for this flight to view local times or setup timezone preferences in your user account.


Time Position Orientation Groundspeed Altitude Reporting Facility
EDT Latitude Longitude Course Direction KTS MPH feet Rate Location/Type
Fri 10:11:00 PM 40.1530 116.5285 330° Northwest  Level Estimated
Fri 10:12:00 PM 40.2258 116.4724 330° Northwest  Level Estimated
Fri 10:13:00 PM 40.2986 116.4161 329° Northwest  Level Estimated
Fri 10:14:00 PM 40.3714 116.3598 329° Northwest  Level Estimated
Fri 10:15:00 PM 40.4441 116.3033 329° Northwest  Level Estimated
Fri 10:16:00 PM 40.5168 116.2466 329° Northwest  Level Estimated
Fri 10:17:00 PM 40.5895 116.1899 329° Northwest  Level Estimated
Fri 10:18:00 PM 40.6622 116.1330 329° Northwest  Level Estimated
Fri 10:19:00 PM 40.7348 116.0760 329° Northwest  Level Estimated
Fri 10:20:00 PM 40.8074 116.0189 329° Northwest  Level Estimated
Fri 10:21:00 PM 40.8800 115.9616 329° Northwest  Level Estimated
Fri 10:22:00 PM 40.9525 115.9043 329° Northwest  Level Estimated
Fri 10:23:00 PM 41.0251 115.8468 329° Northwest  Level Estimated
Fri 10:24:00 PM 41.0975 115.7891 329° Northwest  Level Estimated
Fri 10:25:00 PM 41.1700 115.7314 329° Northwest  Level Estimated
Fri 10:26:00 PM 41.2424 115.6735 329° Northwest  Level Estimated
Fri 10:27:00 PM 41.3148 115.6155 329° Northwest  Level Estimated
Fri 10:28:00 PM 41.3872 115.5574 329° Northwest  Level Estimated
Fri 10:29:00 PM 41.4596 115.4991 329° Northwest  Level Estimated
Fri 10:30:00 PM 41.5319 115.4407 329° Northwest  Level Estimated
Fri 10:31:00 PM 41.6042 115.3822 329° Northwest  Level Estimated
Fri 10:32:00 PM 41.6764 115.3235 329° Northwest  Level Estimated
Fri 10:33:00 PM 41.7487 115.2647 329° Northwest  Level Estimated
Fri 10:34:00 PM 41.8209 115.2058 329° Northwest  Level Estimated
Fri 10:35:00 PM 41.8930 115.1467 329° Northwest  Level Estimated
Fri 10:36:00 PM 41.9652 115.0875 329° Northwest  Level Estimated
Fri 10:37:00 PM 42.0373 115.0282 329° Northwest  Level Estimated
Fri 10:38:00 PM 42.1094 114.9688 329° Northwest  Level Estimated
Fri 10:39:00 PM 42.1814 114.9092 328° Northwest  Level Estimated
Fri 10:40:00 PM 42.2534 114.8494 328° Northwest  Level Estimated
Fri 10:41:00 PM 42.3254 114.7896 328° Northwest  Level Estimated
Fri 10:42:00 PM 42.3974 114.7296 328° Northwest  Level Estimated
Fri 10:43:00 PM 42.4693 114.6694 328° Northwest  Level Estimated
Fri 10:44:00 PM 42.5412 114.6092 328° Northwest  Level Estimated
Fri 10:45:00 PM 42.6130 114.5487 328° Northwest  Level Estimated
Fri 10:46:00 PM 42.6849 114.4882 328° Northwest  Level Estimated
Fri 10:47:00 PM 42.7566 114.4275 328° Northwest  Level Estimated
Fri 10:48:00 PM 42.8284 114.3666 328° Northwest  Level Estimated
Fri 10:49:00 PM 42.9001 114.3057 328° Northwest  Level Estimated
Fri 10:50:00 PM 42.9718 114.2445 328° Northwest  Level Estimated
Fri 10:51:00 PM 43.0435 114.1833 328° Northwest  Level Estimated
Fri 10:52:00 PM 43.1151 114.1219 328° Northwest  Level Estimated
Fri 10:53:00 PM 43.1867 114.0603 328° Northwest  Level Estimated
Fri 10:54:00 PM 43.2583 113.9986 328° Northwest  Level Estimated
Fri 10:55:00 PM 43.3298 113.9368 328° Northwest  Level Estimated
Fri 10:56:00 PM 43.4013 113.8748 328° Northwest  Level Estimated
Fri 10:57:00 PM 43.4728 113.8127 328° Northwest  Level Estimated
Fri 10:58:00 PM 43.5442 113.7504 328° Northwest  Level Estimated
Fri 10:59:00 PM 43.6156 113.6880 328° Northwest  Level Estimated
Fri 11:00:00 PM 43.6994 113.6144 328° Northwest  Level Estimated
Fri 11:01:00 PM 43.7832 113.5407 328° Northwest  Level Estimated
Fri 11:02:00 PM 43.8669 113.4668 328° Northwest  Level Estimated
Fri 11:03:00 PM 43.9506 113.3927 327° Northwest  Level Estimated
Fri 11:04:00 PM 44.0342 113.3183 327° Northwest  Level Estimated
Fri 11:05:00 PM 44.1178 113.2438 327° Northwest  Level Estimated
Fri 11:06:00 PM 44.2013 113.1690 327° Northwest  Level Estimated
Fri 11:07:00 PM 44.2848 113.0940 327° Northwest  Level Estimated
Fri 11:08:00 PM 44.3682 113.0189 327° Northwest  Level Estimated
Fri 11:09:00 PM 44.4516 112.9435 327° Northwest  Level Estimated
Fri 11:10:00 PM 44.5349 112.8678 327° Northwest  Level Estimated
Fri 11:11:00 PM 44.6182 112.7920 327° Northwest  Level Estimated
Fri 11:12:00 PM 44.7015 112.7160 327° Northwest  Level Estimated
Fri 11:13:00 PM 44.7846 112.6397 327° Northwest  Level Estimated
Fri 11:14:00 PM 44.8678 112.5632 327° Northwest  Level Estimated
Fri 11:15:00 PM 44.9508 112.4865 327° Northwest  Level Estimated
Fri 11:16:00 PM 45.0339 112.4096 327° Northwest  Level Estimated
Fri 11:17:00 PM 45.1168 112.3324 327° Northwest  Level Estimated
Fri 11:18:00 PM 45.1997 112.2550 327° Northwest  Level Estimated
Fri 11:19:00 PM 45.2826 112.1774 327° Northwest  Level Estimated
Fri 11:20:00 PM 45.3654 112.0996 327° Northwest  Level Estimated
Fri 11:21:00 PM 45.4482 112.0215 327° Northwest  Level Estimated
Fri 11:22:00 PM 45.5309 111.9432 326° Northwest  Level Estimated
Fri 11:23:00 PM 45.6135 111.8647 326° Northwest  Level Estimated
Fri 11:24:00 PM 45.6962 111.7859 326° Northwest  Level Estimated
Fri 11:25:00 PM 45.7787 111.7069 326° Northwest  Level Estimated
Fri 11:26:00 PM 45.8612 111.6277 326° Northwest  Level Estimated
Fri 11:27:00 PM 45.9436 111.5483 326° Northwest  Level Estimated
Fri 11:28:00 PM 46.0260 111.4686 326° Northwest  Level Estimated
Fri 11:29:00 PM 46.1083 111.3886 326° Northwest  Level Estimated
Fri 11:30:00 PM 46.1906 111.3085 326° Northwest  Level Estimated
Fri 11:31:00 PM 46.2728 111.2281 326° Northwest  Level Estimated
Fri 11:32:00 PM 46.3550 111.1474 326° Northwest  Level Estimated
Fri 11:33:00 PM 46.4371 111.0665 326° Northwest  Level Estimated
Fri 11:34:00 PM 46.5191 110.9854 326° Northwest  Level Estimated
Fri 11:35:00 PM 46.6011 110.9040 326° Northwest  Level Estimated
Fri 11:36:00 PM 46.6830 110.8224 326° Northwest  Level Estimated
Fri 11:37:00 PM 46.7649 110.7405 326° Northwest  Level Estimated
Fri 11:38:00 PM 46.8467 110.6583 326° Northwest  Level Estimated
Fri 11:39:00 PM 46.9285 110.5760 325° Northwest  Level Estimated
Fri 11:40:00 PM 47.0102 110.4933 325° Northwest  Level Estimated
Fri 11:41:00 PM 47.0918 110.4105 325° Northwest  Level Estimated
Fri 11:42:00 PM 47.1734 110.3273 325° Northwest  Level Estimated
Fri 11:43:00 PM 47.2549 110.2439 325° Northwest  Level Estimated
Fri 11:44:00 PM 47.3363 110.1603 325° Northwest  Level Estimated
Fri 11:45:00 PM 47.4177 110.0764 325° Northwest  Level Estimated
Fri 11:46:00 PM 47.4990 109.9922 325° Northwest  Level Estimated
Fri 11:47:00 PM 47.5803 109.9078 325° Northwest  Level Estimated
Fri 11:48:00 PM 47.6615 109.8231 325° Northwest  Level Estimated
Fri 11:49:00 PM 47.7427 109.7381 325° Northwest  Level Estimated
Fri 11:50:00 PM 47.8237 109.6529 325° Northwest  Level Estimated
Fri 11:51:00 PM 47.9048 109.5674 325° Northwest  Level Estimated
Fri 11:52:00 PM 47.9857 109.4817 325° Northwest  Level Estimated
Fri 11:53:00 PM 48.0666 109.3956 325° Northwest  Level Estimated
Fri 11:54:00 PM 48.1474 109.3093 325° Northwest  Level Estimated
Fri 11:55:00 PM 48.2282 109.2227 324° Northwest  Level Estimated
Fri 11:56:00 PM 48.3089 109.1359 324° Northwest  Level Estimated
Fri 11:57:00 PM 48.3895 109.0488 324° Northwest  Level Estimated
Fri 11:58:00 PM 48.4701 108.9614 324° Northwest  Level Estimated
Fri 11:59:00 PM 48.5506 108.8737 324° Northwest  Level Estimated
Sat 12:00:00 AM 48.6310 108.7858 324° Northwest  Level Estimated
Sat 12:01:00 AM 48.7114 108.6975 324° Northwest  Level Estimated
Sat 12:02:00 AM 48.7917 108.6090 324° Northwest  Level Estimated
Sat 12:03:00 AM 48.8719 108.5202 324° Northwest  Level Estimated
Sat 12:04:00 AM 48.9521 108.4312 324° Northwest  Level Estimated
Sat 12:05:00 AM 49.0322 108.3418 324° Northwest  Level Estimated
Sat 12:06:00 AM 49.1122 108.2521 324° Northwest  Level Estimated
Sat 12:07:00 AM 49.1921 108.1622 324° Northwest  Level Estimated
Sat 12:08:00 AM 49.2720 108.0719 324° Northwest  Level Estimated
Sat 12:09:00 AM 49.3518 107.9814 324° Northwest  Level Estimated
Sat 12:10:00 AM 49.4315 107.8906 323° Northwest  Level Estimated
Sat 12:11:00 AM 49.5112 107.7995 323° Northwest  Level Estimated
Sat 12:12:00 AM 49.5908 107.7081 323° Northwest  Level Estimated
Sat 12:13:00 AM 49.6703 107.6163 323° Northwest  Level Estimated
Sat 12:14:00 AM 49.7498 107.5243 323° Northwest  Level Estimated
Sat 12:15:00 AM 49.8292 107.4320 323° Northwest  Level Estimated
Sat 12:16:00 AM 49.9085 107.3394 323° Northwest  Level Estimated
Sat 12:17:00 AM 49.9877 107.2464 323° Northwest  Level Estimated
Sat 12:18:00 AM 50.0669 107.1532 323° Northwest  Level Estimated
Sat 12:19:00 AM 50.1460 107.0597 323° Northwest  Level Estimated
Sat 12:20:00 AM 50.2250 106.9658 323° Northwest  Level Estimated
Sat 12:21:00 AM 50.3039 106.8717 323° Northwest  Level Estimated
Sat 12:22:00 AM 50.3827 106.7772 323° Northwest  Level Estimated
Sat 12:23:00 AM 50.4615 106.6824 323° Northwest  Level Estimated
Sat 12:24:00 AM 50.5402 106.5873 322° Northwest  Level Estimated
Sat 12:25:00 AM 50.6188 106.4919 322° Northwest  Level Estimated
Sat 12:26:00 AM 50.6974 106.3961 322° Northwest  Level Estimated
Sat 12:27:00 AM 50.7758 106.3001 322° Northwest  Level Estimated
Sat 12:28:00 AM 50.8542 106.2037 322° Northwest  Level Estimated
Sat 12:29:00 AM 50.9325 106.1070 322° Northwest  Level Estimated
Sat 12:30:00 AM 51.0108 106.0099 322° Northwest  Level Estimated
Sat 12:31:00 AM 51.0889 105.9126 322° Northwest  Level Estimated
Sat 12:32:00 AM 51.1670 105.8149 322° Northwest  Level Estimated
Sat 12:33:00 AM 51.2450 105.7169 322° Northwest  Level Estimated
Sat 12:34:00 AM 51.3229 105.6185 322° Northwest  Level Estimated
Sat 12:35:00 AM 51.4007 105.5198 322° Northwest  Level Estimated
Sat 12:36:00 AM 51.4784 105.4208 322° Northwest  Level Estimated
Sat 12:37:00 AM 51.5561 105.3214 322° Northwest  Level Estimated
Sat 12:38:00 AM 51.6337 105.2217 321° Northwest  Level Estimated
Sat 12:39:00 AM 51.7111 105.1217 321° Northwest  Level Estimated
Sat 12:40:00 AM 51.7885 105.0213 321° Northwest  Level Estimated
Sat 12:41:00 AM 51.8658 104.9205 321° Northwest  Level Estimated
Sat 12:42:00 AM 51.9431 104.8194 321° Northwest  Level Estimated
Sat 12:43:00 AM 52.0202 104.7180 321° Northwest  Level Estimated
Sat 12:44:00 AM 52.0973 104.6162 321° Northwest  Level Estimated
Sat 12:45:00 AM 52.1742 104.5141 321° Northwest  Level Estimated
Sat 12:46:00 AM 52.2511 104.4116 321° Northwest  Level Estimated
Sat 12:47:00 AM 52.2680 104.3890 321° Northwest  Level Estimated
Sat 12:48:00 AM 52.2680 104.3890 237° Southwest  Level Estimated
Sat 12:49:00 AM 52.2680 104.3890 237° Southwest  Level Estimated
Sat 12:50:00 AM 52.2680 104.3890 237° Southwest  Level Estimated
Sat 12:50:43 AM 51.4980 105.2450 237° Southwest 311 358 18,000  Level FlightAware ADS-B
Sat 12:51:00 AM 52.2680 104.3890 237° Southwest  Level Estimated
Sat 12:51:19 AM 51.5400 105.2010 327° Northwest 299 344 18,000  Level FlightAware ADS-B
Sat 12:51:55 AM 51.5830 105.1560 327° Northwest 297 342 17,100 -1,667 Descending FlightAware ADS-B
Sat 12:52:31 AM 51.6220 105.1250 334° Northwest 301 346 16,000 -2,154 Descending FlightAware ADS-B
Sat 12:53:13 AM 51.6760 105.0810 333° Northwest 309 356 14,300 -2,333 Descending FlightAware ADS-B
Sat 12:53:43 AM 51.7170 105.0480 333° Northwest 313 360 13,200 -2,182 Descending FlightAware ADS-B
Sat 12:54:19 AM 51.7660 105.0080 333° Northwest 306 352 11,900 -1,917 Descending FlightAware ADS-B
Sat 12:54:55 AM 51.8120 104.9710 334° Northwest 296 341 10,900 -1,500 Descending FlightAware ADS-B
Sat 12:55:31 AM 51.8520 104.9370 332° Northwest 286 329 10,100 -915 Descending FlightAware ADS-B
Sat 12:55:54 AM 51.8790 104.9160 334° Northwest 265 305 10,000 -450 Descending FlightAware ADS-B
Sat 12:56:11 AM 51.8960 104.9010 331° Northwest 251 289 9,800 -857 Descending FlightAware ADS-B
Sat 12:56:29 AM 51.9150 104.8860 334° Northwest 246 283 9,500 -1,167 Descending FlightAware ADS-B
Sat 12:56:47 AM 51.9340 104.8700 333° Northwest 241 277 9,100 -1,135 Descending FlightAware ADS-B
Sat 12:57:06 AM 51.9520 104.8560 334° Northwest 238 274 8,800 -1,000 Descending FlightAware ADS-B
Sat 12:57:29 AM 51.9740 104.8380 333° Northwest 233 268 8,400 -1,029 Descending FlightAware ADS-B
Sat 12:57:41 AM 51.9860 104.8280 333° Northwest 230 265 8,200 -667 Descending FlightAware ADS-B
Sat 12:58:05 AM 52.0080 104.8100 333° Northwest 209 241 8,000 -286 Descending FlightAware ADS-B
Sat 12:58:23 AM 52.0220 104.7980 332° Northwest 188 216 8,000 -200 Level FlightAware ADS-B
Sat 12:58:35 AM 52.0290 104.7920 332° Northwest 183 211 7,900 -1,000 Descending FlightAware ADS-B
Sat 12:58:59 AM 52.0490 104.7760 334° Northwest 183 211 7,400 -1,143 Descending FlightAware ADS-B
Sat 12:59:17 AM 52.0630 104.7650 334° Northwest 183 211 7,100 -1,000 Descending FlightAware ADS-B
Sat 12:59:35 AM 52.0770 104.7550 336° Northwest 182 209 6,800 -968 Descending FlightAware ADS-B
Sat 12:59:48 AM 52.0870 104.7470 334° Northwest 182 209 6,600 -1,000 Descending FlightAware ADS-B
Sat 01:00:17 AM 52.1080 104.7300 334° Northwest 182 209 6,100 -1,021 Descending FlightAware ADS-B
Sat 01:00:35 AM 52.1230 104.7180 334° Northwest 184 212 5,800 -1,000 Descending FlightAware ADS-B
Sat 01:00:59 AM 52.1420 104.7010 331° Northwest 188 216 5,400 -833 Descending FlightAware ADS-B
Sat 01:01:11 AM 52.1500 104.6950 335° Northwest 188 216 5,300 -667 Descending FlightAware ADS-B
Sat 01:01:35 AM 52.1700 104.6760 330° Northwest 189 217 5,000 -625 Descending FlightAware ADS-B
Sat 01:01:59 AM 52.1870 104.6610 332° Northwest 189 217 4,800 -429 Descending FlightAware ADS-B
Sat 01:02:17 AM 52.2000 104.6450 323° Northwest 185 213 4,700 -500 Descending FlightAware ADS-B
Sat 01:02:23 AM 52.2020 104.6380 295° West 186 214 4,600 -600 Descending FlightAware ADS-B
Sat 01:02:47 AM 52.2100 104.6080 294° West 174 200 4,400 -571 Descending FlightAware ADS-B
Sat 01:03:05 AM 52.2160 104.5860 294° West 165 190 4,200 -1,000 Descending FlightAware ADS-B
Sat 01:03:35 AM 52.2250 104.5520 293° West 158 182 3,600 -1,000 Descending FlightAware ADS-B
Sat 01:03:47 AM 52.2280 104.5410 294° West 157 181 3,500 -667 Descending FlightAware ADS-B
Sat 01:04:11 AM 52.2350 104.5160 295° West 159 183 3,200 -857 Descending FlightAware ADS-B
Sat 01:04:29 AM 52.2400 104.4950 291° West 161 185 2,900 -1,000 Descending FlightAware ADS-B
Sat 01:04:47 AM 52.2460 104.4760 297° West 163 188 2,600 -1,000 Descending FlightAware ADS-B
Sat 01:05:05 AM 52.2510 104.4550 291° West 162 186 2,300 -1,000 Descending FlightAware ADS-B
Sat 01:05:23 AM 52.2570 104.4340 295° West 159 183 2,000 -1,000 Descending FlightAware ADS-B
Sat 01:06:11 AM 52.2690 104.3900 294° West 151 174 -2,500 Descending FlightAware ADS-B
Sat 01:06:35 AM 52.2710 104.3810 290° West 151 174  Level FlightAware ADS-B
Sat 01:06:59 AM 52.2720 104.3770 292° West 151 174  Level FlightAware ADS-B
Sat 01:07:23 AM 52.2710 104.3750 231° Southwest 151 174  Level FlightAware ADS-B
Sat 01:07:48 AM 52.2730 104.3990 82° East 151 174  Level FlightAware ADS-B
Sat 01:08:11 AM 52.2700 104.3720 260° West 151 174  Level FlightAware ADS-B
Sat 01:08:35 AM 52.2700 104.3700 270° West 151 174  Level FlightAware ADS-B
Sat 01:08:59 AM 52.2710 104.3690 329° Northwest 151 174  Level FlightAware ADS-B
Sat 01:09:23 AM 52.2710 104.3670 270° West 151 174  Level FlightAware ADS-B
Sat 01:10:00 AM 52.2770 104.3450 294° West 151 174  Level FlightAware ADS-B
Sat 01:10:35 AM 52.2710 104.3670 114° Southeast 151 174  Level FlightAware ADS-B
Sat 01:11:05 AM 52.2710 104.3680 90° East 151 174  Level FlightAware ADS-B
Sat 01:11:32 AM 52.2650 104.3920 112° Southeast 151 174  Level FlightAware ADS-B
Sat 01:11:36 AM 52.2710 104.3680 292° West 151 174  Level FlightAware ADS-B
Sat 01:12:04 AM 52.2770 104.3430 291° West 151 174  Level FlightAware ADS-B
Sat 01:14:00 AM 52.2680 104.3890 108° East  Level Estimated

Login

Don't have an account? Register now (free) for customized features, flight alerts, and more!